DAL4522 KRIC-KSWF
Flight info
| Callsign | DAL4522 |
|---|---|
| Flight time | 1h 5m |
| Altitude | 35000 |
| Route | COLIN8 COLIN DANGR Q22 LAURN Q419 DPK TRESA1 |
| Aircraft | B738/M-SDE2E3FGHIRWXY/LB1 |
Departure
| Time | 2026-05-08 11:52 |
|---|---|
| Airport | Richmond International Airport (KRIC) |
Arrival
| Time | 2026-05-08 12:58 |
|---|---|
| Airport | New York Stewart International Airport (KSWF) |
| Time | Latitude | Longitude | Altitude | Speed | Heading |
|---|---|---|---|---|---|
| 2026-05-08 11:39 | 37.50866 | -77.33015 | 171 ft | 0 kts | 1° |
| 2026-05-08 11:47 | 37.50850 | -77.33015 | 171 ft | 4 kts | 1° |
| 2026-05-08 11:47 | 37.50823 | -77.33016 | 171 ft | 4 kts | 1° |
| 2026-05-08 11:48 | 37.50796 | -77.33016 | 171 ft | 4 kts | 1° |
| 2026-05-08 11:48 | 37.50776 | -77.33016 | 171 ft | 0 kts | 1° |
| 2026-05-08 11:49 | 37.50782 | -77.33011 | 171 ft | 5 kts | 39° |
| 2026-05-08 11:50 | 37.50775 | -77.32945 | 173 ft | 7 kts | 143° |
| 2026-05-08 11:50 | 37.50710 | -77.32948 | 173 ft | 13 kts | 194° |
| 2026-05-08 11:50 | 37.50600 | -77.32982 | 172 ft | 20 kts | 193° |
| 2026-05-08 11:50 | 37.50449 | -77.32955 | 171 ft | 25 kts | 168° |
| 2026-05-08 11:51 | 37.50282 | -77.32989 | 168 ft | 24 kts | 193° |
| 2026-05-08 11:51 | 37.50126 | -77.33038 | 165 ft | 23 kts | 193° |
| 2026-05-08 11:51 | 37.49975 | -77.33082 | 162 ft | 22 kts | 189° |
| 2026-05-08 11:51 | 37.49911 | -77.32971 | 163 ft | 16 kts | 58° |
| 2026-05-08 11:52 | 37.50084 | -77.32907 | 165 ft | 58 kts | 13° |
| 2026-05-08 11:52 | 37.50749 | -77.32708 | 171 ft | 136 kts | 13° |
| 2026-05-08 11:52 | 37.51832 | -77.32356 | 469 ft | 179 kts | 13° |
| 2026-05-08 11:52 | 37.53118 | -77.31831 | 1012 ft | 209 kts | 27° |
| 2026-05-08 11:53 | 37.54232 | -77.30615 | 1866 ft | 215 kts | 47° |
| 2026-05-08 11:53 | 37.55179 | -77.29133 | 2628 ft | 222 kts | 47° |
| 2026-05-08 11:53 | 37.56179 | -77.27599 | 3158 ft | 233 kts | 47° |
| 2026-05-08 11:53 | 37.57240 | -77.25975 | 3698 ft | 244 kts | 48° |
| 2026-05-08 11:54 | 37.58333 | -77.24297 | 4402 ft | 250 kts | 48° |
| 2026-05-08 11:54 | 37.59431 | -77.22608 | 5126 ft | 254 kts | 48° |
| 2026-05-08 11:54 | 37.60559 | -77.20870 | 5869 ft | 257 kts | 48° |
| 2026-05-08 11:54 | 37.61696 | -77.19114 | 6625 ft | 260 kts | 47° |
| 2026-05-08 11:55 | 37.62852 | -77.17330 | 7271 ft | 266 kts | 47° |
| 2026-05-08 11:55 | 37.64037 | -77.15500 | 7891 ft | 273 kts | 47° |
| 2026-05-08 11:55 | 37.65250 | -77.13624 | 8530 ft | 279 kts | 47° |
| 2026-05-08 11:55 | 37.66490 | -77.11707 | 9173 ft | 285 kts | 46° |
| 2026-05-08 11:56 | 37.67773 | -77.09772 | 9797 ft | 290 kts | 41° |
| 2026-05-08 11:56 | 37.69264 | -77.08048 | 10401 ft | 292 kts | 34° |
| 2026-05-08 11:56 | 37.70855 | -77.06443 | 11045 ft | 294 kts | 32° |
| 2026-05-08 11:56 | 37.72506 | -77.04824 | 11434 ft | 310 kts | 31° |
| 2026-05-08 11:57 | 37.74272 | -77.03091 | 11604 ft | 332 kts | 32° |
| 2026-05-08 11:57 | 37.76146 | -77.01232 | 11774 ft | 353 kts | 33° |
| 2026-05-08 11:57 | 37.78115 | -76.99253 | 12043 ft | 369 kts | 33° |
| 2026-05-08 11:57 | 37.80139 | -76.97194 | 12562 ft | 377 kts | 33° |
| 2026-05-08 11:58 | 37.82186 | -76.95098 | 13228 ft | 380 kts | 33° |
| 2026-05-08 11:58 | 37.84248 | -76.92978 | 13906 ft | 384 kts | 32° |
| 2026-05-08 11:58 | 37.86336 | -76.90830 | 14485 ft | 389 kts | 32° |
| 2026-05-08 11:59 | 37.90591 | -76.86454 | 15637 ft | 399 kts | 32° |
| 2026-05-08 11:59 | 37.92761 | -76.84220 | 16203 ft | 405 kts | 31° |
| 2026-05-08 11:59 | 37.94960 | -76.81956 | 16767 ft | 410 kts | 31° |
| 2026-05-08 11:59 | 37.97191 | -76.79655 | 17316 ft | 416 kts | 31° |
| 2026-05-08 12:00 | 37.99447 | -76.77327 | 17893 ft | 421 kts | 31° |
| 2026-05-08 12:00 | 38.01730 | -76.74969 | 18427 ft | 426 kts | 31° |
| 2026-05-08 12:00 | 38.04041 | -76.72578 | 18904 ft | 431 kts | 31° |
| 2026-05-08 12:00 | 38.06370 | -76.70167 | 19380 ft | 435 kts | 30° |
| 2026-05-08 12:01 | 38.08699 | -76.67758 | 19870 ft | 439 kts | 30° |
| 2026-05-08 12:01 | 38.11107 | -76.65355 | 20334 ft | 440 kts | 26° |
| 2026-05-08 12:01 | 38.13647 | -76.63195 | 20793 ft | 439 kts | 22° |
| 2026-05-08 12:01 | 38.16258 | -76.61166 | 21268 ft | 441 kts | 20° |
| 2026-05-08 12:02 | 38.18906 | -76.59165 | 21724 ft | 445 kts | 20° |
| 2026-05-08 12:02 | 38.21581 | -76.57139 | 22185 ft | 449 kts | 20° |
| 2026-05-08 12:02 | 38.24266 | -76.55076 | 22653 ft | 453 kts | 21° |
| 2026-05-08 12:02 | 38.26970 | -76.52969 | 23117 ft | 457 kts | 21° |
| 2026-05-08 12:03 | 38.29687 | -76.50828 | 23557 ft | 461 kts | 21° |
| 2026-05-08 12:03 | 38.32418 | -76.48661 | 23938 ft | 465 kts | 21° |
| 2026-05-08 12:03 | 38.35166 | -76.46472 | 24309 ft | 467 kts | 21° |
| 2026-05-08 12:03 | 38.37932 | -76.44263 | 24691 ft | 470 kts | 21° |
| 2026-05-08 12:04 | 38.40709 | -76.42044 | 25058 ft | 473 kts | 21° |
| 2026-05-08 12:04 | 38.43505 | -76.39810 | 25399 ft | 475 kts | 21° |
| 2026-05-08 12:04 | 38.46313 | -76.37565 | 25733 ft | 478 kts | 21° |
| 2026-05-08 12:04 | 38.49144 | -76.35301 | 26063 ft | 481 kts | 21° |
| 2026-05-08 12:05 | 38.51989 | -76.33023 | 26390 ft | 484 kts | 21° |
| 2026-05-08 12:05 | 38.54851 | -76.30730 | 26720 ft | 486 kts | 21° |
| 2026-05-08 12:05 | 38.57722 | -76.28427 | 27044 ft | 489 kts | 21° |
| 2026-05-08 12:05 | 38.60613 | -76.26106 | 27352 ft | 492 kts | 21° |
| 2026-05-08 12:06 | 38.63518 | -76.23772 | 27671 ft | 494 kts | 21° |
| 2026-05-08 12:06 | 38.66438 | -76.21422 | 27960 ft | 497 kts | 21° |
| 2026-05-08 12:06 | 38.69371 | -76.19061 | 28259 ft | 499 kts | 21° |
| 2026-05-08 12:06 | 38.72314 | -76.16688 | 28553 ft | 502 kts | 21° |
| 2026-05-08 12:07 | 38.75276 | -76.14298 | 28849 ft | 504 kts | 21° |
| 2026-05-08 12:07 | 38.78247 | -76.11897 | 29150 ft | 506 kts | 21° |
| 2026-05-08 12:07 | 38.81221 | -76.09490 | 29557 ft | 505 kts | 21° |
| 2026-05-08 12:07 | 38.84183 | -76.07089 | 30031 ft | 503 kts | 21° |
| 2026-05-08 12:08 | 38.87139 | -76.04691 | 30436 ft | 501 kts | 21° |
| 2026-05-08 12:08 | 38.90087 | -76.02302 | 30749 ft | 501 kts | 21° |
| 2026-05-08 12:08 | 38.93034 | -75.99912 | 31066 ft | 501 kts | 21° |
| 2026-05-08 12:08 | 38.95959 | -75.97464 | 31403 ft | 505 kts | 25° |
| 2026-05-08 12:09 | 38.98706 | -75.94568 | 31731 ft | 515 kts | 32° |
| 2026-05-08 12:09 | 39.01343 | -75.91444 | 32040 ft | 517 kts | 33° |
| 2026-05-08 12:09 | 39.03953 | -75.88255 | 32307 ft | 518 kts | 33° |
| 2026-05-08 12:09 | 39.06561 | -75.85058 | 32570 ft | 518 kts | 33° |
| 2026-05-08 12:10 | 39.09179 | -75.81873 | 32866 ft | 517 kts | 33° |
| 2026-05-08 12:10 | 39.11804 | -75.78711 | 33162 ft | 517 kts | 32° |
| 2026-05-08 12:10 | 39.14441 | -75.75558 | 33436 ft | 517 kts | 32° |
| 2026-05-08 12:10 | 39.17077 | -75.72414 | 33698 ft | 517 kts | 32° |
| 2026-05-08 12:11 | 39.19717 | -75.69265 | 33965 ft | 517 kts | 32° |
| 2026-05-08 12:11 | 39.22355 | -75.66113 | 34212 ft | 517 kts | 32° |
| 2026-05-08 12:11 | 39.24989 | -75.62957 | 34451 ft | 516 kts | 32° |
| 2026-05-08 12:11 | 39.27615 | -75.59806 | 34725 ft | 515 kts | 32° |
| 2026-05-08 12:12 | 39.30234 | -75.56660 | 34989 ft | 514 kts | 32° |
| 2026-05-08 12:12 | 39.32822 | -75.53546 | 35034 ft | 517 kts | 33° |
| 2026-05-08 12:12 | 39.38112 | -75.47156 | 35045 ft | 522 kts | 33° |
| 2026-05-08 12:13 | 39.43394 | -75.40739 | 35042 ft | 520 kts | 33° |
| 2026-05-08 12:13 | 39.48649 | -75.34345 | 35042 ft | 518 kts | 33° |
| 2026-05-08 12:14 | 39.53041 | -75.28997 | 35039 ft | 516 kts | 33° |
| 2026-05-08 12:14 | 39.58228 | -75.22670 | 35037 ft | 515 kts | 34° |
| 2026-05-08 12:15 | 39.63427 | -75.16314 | 35030 ft | 513 kts | 34° |
| 2026-05-08 12:15 | 39.68622 | -75.09966 | 35041 ft | 511 kts | 32° |
| 2026-05-08 12:16 | 39.73988 | -75.04006 | 35045 ft | 507 kts | 30° |
| 2026-05-08 12:16 | 39.79381 | -74.98073 | 35031 ft | 509 kts | 31° |
| 2026-05-08 12:17 | 39.84715 | -74.92009 | 35040 ft | 510 kts | 32° |
| 2026-05-08 12:17 | 39.90072 | -74.85929 | 35037 ft | 509 kts | 30° |
| 2026-05-08 12:18 | 39.95752 | -74.80590 | 35041 ft | 501 kts | 24° |
| 2026-05-08 12:18 | 40.01522 | -74.75450 | 35038 ft | 504 kts | 25° |
| 2026-05-08 12:19 | 40.04302 | -74.72581 | 35023 ft | 516 kts | 34° |
| 2026-05-08 12:19 | 40.06811 | -74.69180 | 35040 ft | 523 kts | 40° |
| 2026-05-08 12:19 | 40.11619 | -74.62006 | 35029 ft | 525 kts | 41° |
| 2026-05-08 12:20 | 40.16467 | -74.54883 | 35029 ft | 524 kts | 39° |
| 2026-05-08 12:20 | 40.17837 | -74.52903 | 35026 ft | 524 kts | 39° |
| 2026-05-08 12:21 | 40.20824 | -74.48760 | 35012 ft | 515 kts | 33° |
| 2026-05-08 12:22 | 40.23504 | -74.45749 | 35022 ft | 503 kts | 30° |
| 2026-05-08 12:22 | 40.26218 | -74.42889 | 35015 ft | 500 kts | 28° |
| 2026-05-08 12:22 | 40.31644 | -74.37250 | 34891 ft | 499 kts | 29° |
| 2026-05-08 12:23 | 40.34368 | -74.34386 | 34334 ft | 502 kts | 29° |
| 2026-05-08 12:23 | 40.37081 | -74.31498 | 33709 ft | 502 kts | 29° |
| 2026-05-08 12:23 | 40.39789 | -74.28595 | 33013 ft | 503 kts | 29° |
| 2026-05-08 12:23 | 40.42496 | -74.25683 | 32341 ft | 503 kts | 29° |
| 2026-05-08 12:24 | 40.45208 | -74.22763 | 31667 ft | 504 kts | 28° |
| 2026-05-08 12:24 | 40.47886 | -74.19882 | 30993 ft | 504 kts | 28° |
| 2026-05-08 12:24 | 40.50636 | -74.16918 | 30262 ft | 507 kts | 30° |
| 2026-05-08 12:24 | 40.53152 | -74.13645 | 29448 ft | 524 kts | 41° |
| 2026-05-08 12:25 | 40.55277 | -74.09716 | 28897 ft | 530 kts | 52° |
| 2026-05-08 12:25 | 40.56919 | -74.05356 | 28332 ft | 535 kts | 64° |
| 2026-05-08 12:25 | 40.58051 | -74.00693 | 27827 ft | 533 kts | 69° |
| 2026-05-08 12:25 | 40.59047 | -73.96023 | 27274 ft | 529 kts | 70° |
| 2026-05-08 12:26 | 40.60031 | -73.91388 | 26721 ft | 523 kts | 70° |
| 2026-05-08 12:26 | 40.61045 | -73.86815 | 26194 ft | 518 kts | 69° |
| 2026-05-08 12:26 | 40.62084 | -73.82303 | 25675 ft | 512 kts | 69° |
| 2026-05-08 12:26 | 40.63127 | -73.77849 | 25157 ft | 507 kts | 68° |
| 2026-05-08 12:27 | 40.64362 | -73.73543 | 24637 ft | 498 kts | 62° |
| 2026-05-08 12:27 | 40.65766 | -73.69412 | 24132 ft | 492 kts | 60° |
| 2026-05-08 12:27 | 40.67211 | -73.65345 | 23604 ft | 488 kts | 59° |
| 2026-05-08 12:27 | 40.68647 | -73.61318 | 22988 ft | 483 kts | 60° |
| 2026-05-08 12:28 | 40.70051 | -73.57318 | 22430 ft | 478 kts | 60° |
| 2026-05-08 12:28 | 40.71417 | -73.53359 | 21916 ft | 472 kts | 61° |
| 2026-05-08 12:28 | 40.72758 | -73.49430 | 21396 ft | 467 kts | 61° |
| 2026-05-08 12:28 | 40.74075 | -73.45545 | 20893 ft | 462 kts | 61° |
| 2026-05-08 12:29 | 40.75376 | -73.41702 | 20399 ft | 457 kts | 61° |
| 2026-05-08 12:29 | 40.76664 | -73.37900 | 19909 ft | 452 kts | 61° |
| 2026-05-08 12:29 | 40.77939 | -73.34131 | 19428 ft | 447 kts | 61° |
| 2026-05-08 12:29 | 40.79426 | -73.30588 | 18949 ft | 435 kts | 48° |
| 2026-05-08 12:30 | 40.81373 | -73.27668 | 18730 ft | 415 kts | 36° |
| 2026-05-08 12:30 | 40.83539 | -73.25247 | 18492 ft | 403 kts | 32° |
| 2026-05-08 12:30 | 40.85664 | -73.22870 | 18261 ft | 399 kts | 33° |
| 2026-05-08 12:30 | 40.87772 | -73.20455 | 18018 ft | 404 kts | 34° |
| 2026-05-08 12:31 | 40.89901 | -73.17990 | 17767 ft | 408 kts | 34° |
| 2026-05-08 12:31 | 40.92021 | -73.15517 | 17509 ft | 406 kts | 34° |
| 2026-05-08 12:31 | 40.94125 | -73.13053 | 17267 ft | 402 kts | 35° |
| 2026-05-08 12:31 | 40.96207 | -73.10614 | 17024 ft | 398 kts | 35° |
| 2026-05-08 12:32 | 40.98274 | -73.08193 | 16791 ft | 395 kts | 35° |
| 2026-05-08 12:32 | 41.00300 | -73.05822 | 16577 ft | 393 kts | 35° |
| 2026-05-08 12:32 | 41.02372 | -73.03397 | 16348 ft | 391 kts | 35° |
| 2026-05-08 12:32 | 41.04407 | -73.01014 | 16125 ft | 390 kts | 35° |
| 2026-05-08 12:33 | 41.06436 | -72.98638 | 15901 ft | 389 kts | 35° |
| 2026-05-08 12:33 | 41.08435 | -72.96293 | 15674 ft | 388 kts | 35° |
| 2026-05-08 12:33 | 41.10454 | -72.93923 | 15450 ft | 387 kts | 35° |
| 2026-05-08 12:33 | 41.12468 | -72.91557 | 15222 ft | 386 kts | 36° |
| 2026-05-08 12:34 | 41.14474 | -72.89197 | 14998 ft | 385 kts | 36° |
| 2026-05-08 12:34 | 41.16478 | -72.86838 | 14773 ft | 384 kts | 36° |
| 2026-05-08 12:34 | 41.18469 | -72.84491 | 14550 ft | 383 kts | 36° |
| 2026-05-08 12:34 | 41.20456 | -72.82147 | 14326 ft | 381 kts | 36° |
| 2026-05-08 12:35 | 41.22430 | -72.79817 | 14104 ft | 379 kts | 36° |
| 2026-05-08 12:35 | 41.24394 | -72.77498 | 13884 ft | 377 kts | 36° |
| 2026-05-08 12:35 | 41.26345 | -72.75192 | 13657 ft | 374 kts | 36° |
| 2026-05-08 12:35 | 41.28341 | -72.73010 | 13398 ft | 366 kts | 26° |
| 2026-05-08 12:36 | 41.30644 | -72.71807 | 13193 ft | 349 kts | 4° |
| 2026-05-08 12:36 | 41.33008 | -72.71725 | 13001 ft | 335 kts | 347° |
| 2026-05-08 12:36 | 41.35226 | -72.72472 | 12798 ft | 325 kts | 332° |
| 2026-05-08 12:36 | 41.37193 | -72.73877 | 12627 ft | 320 kts | 324° |
| 2026-05-08 12:37 | 41.39081 | -72.75442 | 12436 ft | 320 kts | 323° |
| 2026-05-08 12:37 | 41.40957 | -72.77044 | 12247 ft | 320 kts | 323° |
| 2026-05-08 12:37 | 41.42830 | -72.78645 | 12059 ft | 319 kts | 323° |
| 2026-05-08 12:37 | 41.44682 | -72.80214 | 11867 ft | 310 kts | 323° |
| 2026-05-08 12:38 | 41.46482 | -72.81729 | 11685 ft | 301 kts | 323° |
| 2026-05-08 12:38 | 41.48220 | -72.83186 | 11497 ft | 287 kts | 323° |
| 2026-05-08 12:38 | 41.49863 | -72.84559 | 11342 ft | 270 kts | 323° |
| 2026-05-08 12:38 | 41.51416 | -72.85856 | 11187 ft | 258 kts | 323° |
| 2026-05-08 12:39 | 41.52924 | -72.87120 | 11047 ft | 256 kts | 323° |
| 2026-05-08 12:39 | 41.54431 | -72.88384 | 10912 ft | 255 kts | 323° |
| 2026-05-08 12:39 | 41.55931 | -72.89642 | 10769 ft | 254 kts | 323° |
| 2026-05-08 12:39 | 41.57430 | -72.90900 | 10628 ft | 255 kts | 323° |
| 2026-05-08 12:40 | 41.58932 | -72.92159 | 10481 ft | 255 kts | 323° |
| 2026-05-08 12:40 | 41.60435 | -72.93419 | 10322 ft | 255 kts | 324° |
| 2026-05-08 12:40 | 41.61936 | -72.94679 | 10175 ft | 255 kts | 324° |
| 2026-05-08 12:40 | 41.63439 | -72.95939 | 10021 ft | 255 kts | 324° |
| 2026-05-08 12:41 | 41.64940 | -72.97198 | 9883 ft | 255 kts | 324° |
| 2026-05-08 12:41 | 41.66439 | -72.98457 | 9720 ft | 255 kts | 324° |
| 2026-05-08 12:41 | 41.67942 | -72.99719 | 9561 ft | 254 kts | 324° |
| 2026-05-08 12:41 | 41.69362 | -73.01053 | 9392 ft | 251 kts | 311° |
| 2026-05-08 12:42 | 41.70308 | -73.02975 | 9255 ft | 246 kts | 291° |
| 2026-05-08 12:42 | 41.70732 | -73.05181 | 9121 ft | 245 kts | 280° |
| 2026-05-08 12:42 | 41.71000 | -73.07430 | 8970 ft | 245 kts | 279° |
| 2026-05-08 12:42 | 41.71250 | -73.09680 | 8830 ft | 244 kts | 279° |
| 2026-05-08 12:43 | 41.71499 | -73.11925 | 8684 ft | 244 kts | 279° |
| 2026-05-08 12:43 | 41.71749 | -73.14166 | 8541 ft | 243 kts | 279° |
| 2026-05-08 12:43 | 41.72002 | -73.16400 | 8398 ft | 243 kts | 279° |
| 2026-05-08 12:43 | 41.72257 | -73.18632 | 8255 ft | 243 kts | 279° |
| 2026-05-08 12:44 | 41.72512 | -73.20864 | 8111 ft | 242 kts | 279° |
| 2026-05-08 12:44 | 41.72768 | -73.23091 | 7978 ft | 242 kts | 279° |
| 2026-05-08 12:44 | 41.73025 | -73.25326 | 7831 ft | 243 kts | 279° |
| 2026-05-08 12:44 | 41.73282 | -73.27558 | 7682 ft | 242 kts | 279° |
| 2026-05-08 12:45 | 41.73538 | -73.29788 | 7554 ft | 242 kts | 279° |
| 2026-05-08 12:45 | 41.73794 | -73.32012 | 7400 ft | 242 kts | 279° |
| 2026-05-08 12:45 | 41.74050 | -73.34246 | 7265 ft | 242 kts | 279° |
| 2026-05-08 12:45 | 41.74306 | -73.36471 | 7125 ft | 243 kts | 279° |
| 2026-05-08 12:46 | 41.74562 | -73.38706 | 7015 ft | 243 kts | 279° |
| 2026-05-08 12:46 | 41.74819 | -73.40957 | 6975 ft | 244 kts | 279° |
| 2026-05-08 12:46 | 41.75071 | -73.43164 | 6945 ft | 234 kts | 279° |
| 2026-05-08 12:46 | 41.75310 | -73.45267 | 6770 ft | 224 kts | 279° |
| 2026-05-08 12:47 | 41.75538 | -73.47271 | 6582 ft | 212 kts | 279° |
| 2026-05-08 12:47 | 41.75394 | -73.49200 | 6372 ft | 214 kts | 245° |
| 2026-05-08 12:47 | 41.74448 | -73.50738 | 6203 ft | 216 kts | 228° |
| 2026-05-08 12:47 | 41.73362 | -73.52140 | 6007 ft | 217 kts | 227° |
| 2026-05-08 12:48 | 41.72273 | -73.53526 | 5880 ft | 216 kts | 227° |
| 2026-05-08 12:48 | 41.71198 | -73.54891 | 5751 ft | 215 kts | 227° |
| 2026-05-08 12:48 | 41.70095 | -73.56291 | 5624 ft | 216 kts | 227° |
| 2026-05-08 12:48 | 41.69018 | -73.57667 | 5491 ft | 217 kts | 227° |
| 2026-05-08 12:49 | 41.67924 | -73.59060 | 5362 ft | 218 kts | 227° |
| 2026-05-08 12:49 | 41.66824 | -73.60459 | 5231 ft | 218 kts | 227° |
| 2026-05-08 12:49 | 41.65724 | -73.61863 | 5119 ft | 219 kts | 227° |
| 2026-05-08 12:49 | 41.64621 | -73.63282 | 4983 ft | 220 kts | 227° |
| 2026-05-08 12:50 | 41.63514 | -73.64704 | 4855 ft | 221 kts | 227° |
| 2026-05-08 12:50 | 41.62407 | -73.66123 | 4719 ft | 221 kts | 227° |
| 2026-05-08 12:50 | 41.61298 | -73.67539 | 4598 ft | 220 kts | 227° |
| 2026-05-08 12:50 | 41.60193 | -73.68953 | 4462 ft | 220 kts | 227° |
| 2026-05-08 12:51 | 41.59092 | -73.70363 | 4327 ft | 219 kts | 227° |
| 2026-05-08 12:51 | 41.56897 | -73.73177 | 4086 ft | 218 kts | 228° |
| 2026-05-08 12:51 | 41.56137 | -73.74840 | 4028 ft | 207 kts | 257° |
| 2026-05-08 12:52 | 41.55779 | -73.76707 | 3983 ft | 208 kts | 258° |
| 2026-05-08 12:52 | 41.55143 | -73.80515 | 3984 ft | 211 kts | 261° |
| 2026-05-08 12:52 | 41.54849 | -73.82373 | 3967 ft | 196 kts | 261° |
| 2026-05-08 12:53 | 41.54576 | -73.84085 | 3964 ft | 181 kts | 261° |
| 2026-05-08 12:53 | 41.54322 | -73.85715 | 3988 ft | 178 kts | 261° |
| 2026-05-08 12:53 | 41.54070 | -73.87344 | 3896 ft | 180 kts | 261° |
| 2026-05-08 12:53 | 41.53811 | -73.88995 | 3663 ft | 180 kts | 261° |
| 2026-05-08 12:54 | 41.53560 | -73.90600 | 3441 ft | 174 kts | 262° |
| 2026-05-08 12:54 | 41.53314 | -73.92187 | 3170 ft | 173 kts | 261° |
| 2026-05-08 12:54 | 41.53068 | -73.93769 | 2937 ft | 175 kts | 262° |
| 2026-05-08 12:54 | 41.52823 | -73.95353 | 2688 ft | 170 kts | 261° |
| 2026-05-08 12:55 | 41.52587 | -73.96846 | 2494 ft | 161 kts | 261° |
| 2026-05-08 12:55 | 41.52364 | -73.98279 | 2249 ft | 153 kts | 262° |
| 2026-05-08 12:55 | 41.52156 | -73.99632 | 2060 ft | 145 kts | 261° |
| 2026-05-08 12:55 | 41.51954 | -74.00938 | 1834 ft | 139 kts | 261° |
| 2026-05-08 12:56 | 41.51760 | -74.02190 | 1670 ft | 140 kts | 260° |
| 2026-05-08 12:56 | 41.51560 | -74.03476 | 1442 ft | 143 kts | 260° |
| 2026-05-08 12:56 | 41.51360 | -74.04773 | 1296 ft | 142 kts | 259° |
| 2026-05-08 12:56 | 41.51173 | -74.06062 | 1060 ft | 142 kts | 259° |
| 2026-05-08 12:57 | 41.50968 | -74.07355 | 844 ft | 142 kts | 259° |
| 2026-05-08 12:57 | 41.50768 | -74.08645 | 633 ft | 140 kts | 259° |
| 2026-05-08 12:57 | 41.50577 | -74.09896 | 482 ft | 136 kts | 258° |
| 2026-05-08 12:57 | 41.50421 | -74.10902 | 469 ft | 66 kts | 258° |
| 2026-05-08 12:58 | 41.50324 | -74.11240 | 470 ft | 23 kts | 232° |
| 2026-05-08 12:58 | 41.50217 | -74.11362 | 471 ft | 19 kts | 171° |
| 2026-05-08 12:58 | 41.50193 | -74.11213 | 469 ft | 18 kts | 79° |
| 2026-05-08 12:58 | 41.50219 | -74.11050 | 469 ft | 18 kts | 77° |
| 2026-05-08 12:59 | 41.50243 | -74.10893 | 467 ft | 17 kts | 79° |
| 2026-05-08 12:59 | 41.50266 | -74.10742 | 471 ft | 16 kts | 78° |
| 2026-05-08 12:59 | 41.50289 | -74.10596 | 473 ft | 16 kts | 77° |
| 2026-05-08 12:59 | 41.50311 | -74.10456 | 473 ft | 15 kts | 78° |
| 2026-05-08 13:00 | 41.50331 | -74.10322 | 475 ft | 14 kts | 78° |
| 2026-05-08 13:00 | 41.50351 | -74.10193 | 476 ft | 14 kts | 78° |
| 2026-05-08 13:00 | 41.50371 | -74.10066 | 472 ft | 15 kts | 78° |
| 2026-05-08 13:00 | 41.50394 | -74.09921 | 475 ft | 17 kts | 78° |
| 2026-05-08 13:01 | 41.50417 | -74.09782 | 472 ft | 9 kts | 78° |
| 2026-05-08 13:01 | 41.50412 | -74.09757 | 470 ft | 3 kts | 134° |
| 2026-05-08 13:01 | 41.50388 | -74.09760 | 470 ft | 5 kts | 200° |
| 2026-05-08 13:01 | 41.50329 | -74.09786 | 474 ft | 11 kts | 192° |
| 2026-05-08 13:02 | 41.50242 | -74.09813 | 472 ft | 14 kts | 194° |
| 2026-05-08 13:02 | 41.50151 | -74.09846 | 470 ft | 13 kts | 196° |
| 2026-05-08 13:02 | 41.50064 | -74.09881 | 469 ft | 13 kts | 197° |
| 2026-05-08 13:02 | 41.49979 | -74.09916 | 467 ft | 13 kts | 197° |
| 2026-05-08 13:03 | 41.49905 | -74.09929 | 465 ft | 7 kts | 225° |
| 2026-05-08 13:03 | 41.49889 | -74.09979 | 464 ft | 3 kts | 250° |